sensor_id;sensor_type;location;lat;lon;timestamp;temperature;humidity
5556;DHT22;2801;50.972;7.856;2022-09-03T00:05:22;9.70;96.70
5556;DHT22;2801;50.972;7.856;2022-09-03T00:08:12;9.70;96.70
5556;DHT22;2801;50.972;7.856;2022-09-03T00:13:56;9.70;96.90
5556;DHT22;2801;50.972;7.856;2022-09-03T00:16:43;9.80;97.10
5556;DHT22;2801;50.972;7.856;2022-09-03T00:19:21;9.70;97.20
5556;DHT22;2801;50.972;7.856;2022-09-03T00:22:04;9.80;97.30
5556;DHT22;2801;50.972;7.856;2022-09-03T00:24:39;9.80;97.40
5556;DHT22;2801;50.972;7.856;2022-09-03T00:27:16;9.80;97.50
5556;DHT22;2801;50.972;7.856;2022-09-03T00:29:54;9.90;97.60
5556;DHT22;2801;50.972;7.856;2022-09-03T00:32:33;9.90;97.70
5556;DHT22;2801;50.972;7.856;2022-09-03T00:35:12;10.00;97.30
5556;DHT22;2801;50.972;7.856;2022-09-03T00:37:44;10.00;97.30
5556;DHT22;2801;50.972;7.856;2022-09-03T01:04:20;10.70;97.70
5556;DHT22;2801;50.972;7.856;2022-09-03T01:13:33;11.20;97.70
5556;DHT22;2801;50.972;7.856;2022-09-03T01:31:16;11.50;97.60
5556;DHT22;2801;50.972;7.856;2022-09-03T01:34:47;11.60;97.50
5556;DHT22;2801;50.972;7.856;2022-09-03T01:37:48;11.70;97.30
5556;DHT22;2801;50.972;7.856;2022-09-03T01:40:27;11.70;97.30
5556;DHT22;2801;50.972;7.856;2022-09-03T01:43:43;11.70;97.20
5556;DHT22;2801;50.972;7.856;2022-09-03T01:46:39;11.80;97.10
5556;DHT22;2801;50.972;7.856;2022-09-03T01:49:33;11.80;97.10
5556;DHT22;2801;50.972;7.856;2022-09-03T01:52:18;11.70;97.00
5556;DHT22;2801;50.972;7.856;2022-09-03T02:00:50;11.70;97.10
5556;DHT22;2801;50.972;7.856;2022-09-03T02:03:25;11.70;97.10
5556;DHT22;2801;50.972;7.856;2022-09-03T02:06:07;11.70;97.10
5556;DHT22;2801;50.972;7.856;2022-09-03T02:08:36;11.70;97.10
5556;DHT22;2801;50.972;7.856;2022-09-03T02:11:05;11.60;97.10
5556;DHT22;2801;50.972;7.856;2022-09-03T02:13:40;11.70;97.20
5556;DHT22;2801;50.972;7.856;2022-09-03T02:16:19;11.60;97.10
5556;DHT22;2801;50.972;7.856;2022-09-03T02:18:53;11.60;97.50
5556;DHT22;2801;50.972;7.856;2022-09-03T02:21:24;11.60;97.30
5556;DHT22;2801;50.972;7.856;2022-09-03T02:23:58;11.70;97.20
5556;DHT22;2801;50.972;7.856;2022-09-03T02:26:26;11.60;97.10
5556;DHT22;2801;50.972;7.856;2022-09-03T02:28:53;11.60;97.20
5556;DHT22;2801;50.972;7.856;2022-09-03T02:31:21;11.60;97.20
5556;DHT22;2801;50.972;7.856;2022-09-03T02:33:49;11.60;97.30
5556;DHT22;2801;50.972;7.856;2022-09-03T02:36:23;11.60;97.30
5556;DHT22;2801;50.972;7.856;2022-09-03T02:38:53;11.60;97.30
5556;DHT22;2801;50.972;7.856;2022-09-03T02:41:20;11.50;97.20
5556;DHT22;2801;50.972;7.856;2022-09-03T02:44:07;11.40;97.30
5556;DHT22;2801;50.972;7.856;2022-09-03T02:46:56;11.40;97.30
5556;DHT22;2801;50.972;7.856;2022-09-03T02:49:25;11.30;97.30
5556;DHT22;2801;50.972;7.856;2022-09-03T02:52:00;11.30;97.40
5556;DHT22;2801;50.972;7.856;2022-09-03T02:54:35;11.20;97.40
5556;DHT22;2801;50.972;7.856;2022-09-03T02:57:06;11.30;97.50
5556;DHT22;2801;50.972;7.856;2022-09-03T02:59:35;11.20;97.50
5556;DHT22;2801;50.972;7.856;2022-09-03T03:02:02;11.20;97.60
5556;DHT22;2801;50.972;7.856;2022-09-03T03:04:31;11.10;97.60
5556;DHT22;2801;50.972;7.856;2022-09-03T03:06:58;11.10;98.00
5556;DHT22;2801;50.972;7.856;2022-09-03T03:09:25;11.00;97.60
5556;DHT22;2801;50.972;7.856;2022-09-03T03:11:52;11.00;97.70
5556;DHT22;2801;50.972;7.856;2022-09-03T03:14:21;11.00;97.90
5556;DHT22;2801;50.972;7.856;2022-09-03T03:16:49;10.90;98.00
5556;DHT22;2801;50.972;7.856;2022-09-03T03:19:16;10.90;97.90
5556;DHT22;2801;50.972;7.856;2022-09-03T03:21:43;10.90;98.00
5556;DHT22;2801;50.972;7.856;2022-09-03T03:24:10;10.90;98.10
5556;DHT22;2801;50.972;7.856;2022-09-03T03:26:37;10.80;98.20
5556;DHT22;2801;50.972;7.856;2022-09-03T03:29:04;10.90;98.30
5556;DHT22;2801;50.972;7.856;2022-09-03T03:31:32;10.90;98.40
5556;DHT22;2801;50.972;7.856;2022-09-03T03:34:01;10.90;98.40
5556;DHT22;2801;50.972;7.856;2022-09-03T03:36:31;10.90;98.40
5556;DHT22;2801;50.972;7.856;2022-09-03T03:38:59;10.90;98.50
5556;DHT22;2801;50.972;7.856;2022-09-03T03:41:29;10.90;98.60
5556;DHT22;2801;50.972;7.856;2022-09-03T03:44:00;11.00;98.80
5556;DHT22;2801;50.972;7.856;2022-09-03T03:46:31;11.00;98.70
5556;DHT22;2801;50.972;7.856;2022-09-03T03:49:03;10.90;98.90
5556;DHT22;2801;50.972;7.856;2022-09-03T03:51:35;11.00;98.90
5556;DHT22;2801;50.972;7.856;2022-09-03T03:54:04;11.00;99.00
5556;DHT22;2801;50.972;7.856;2022-09-03T03:56:32;11.10;99.00
5556;DHT22;2801;50.972;7.856;2022-09-03T03:59:00;11.10;99.00
5556;DHT22;2801;50.972;7.856;2022-09-03T04:01:27;11.10;99.00
5556;DHT22;2801;50.972;7.856;2022-09-03T04:03:55;11.20;99.00
5556;DHT22;2801;50.972;7.856;2022-09-03T04:06:24;11.20;99.00
5556;DHT22;2801;50.972;7.856;2022-09-03T04:08:51;11.20;98.90
5556;DHT22;2801;50.972;7.856;2022-09-03T04:11:21;11.20;99.00
5556;DHT22;2801;50.972;7.856;2022-09-03T04:13:50;11.20;99.00
5556;DHT22;2801;50.972;7.856;2022-09-03T04:16:19;11.20;99.10
5556;DHT22;2801;50.972;7.856;2022-09-03T04:18:47;11.20;99.10
5556;DHT22;2801;50.972;7.856;2022-09-03T04:21:18;11.20;99.10
5556;DHT22;2801;50.972;7.856;2022-09-03T04:23:50;11.20;99.20
5556;DHT22;2801;50.972;7.856;2022-09-03T04:26:20;11.30;99.90
5556;DHT22;2801;50.972;7.856;2022-09-03T04:28:50;11.50;99.70
5556;DHT22;2801;50.972;7.856;2022-09-03T04:31:19;11.60;99.40
5556;DHT22;2801;50.972;7.856;2022-09-03T04:33:46;11.60;99.10
5556;DHT22;2801;50.972;7.856;2022-09-03T04:36:16;11.50;99.10
5556;DHT22;2801;50.972;7.856;2022-09-03T04:38:47;11.50;99.10
5556;DHT22;2801;50.972;7.856;2022-09-03T04:41:18;11.40;99.00
5556;DHT22;2801;50.972;7.856;2022-09-03T04:43:47;11.40;99.10
5556;DHT22;2801;50.972;7.856;2022-09-03T04:46:18;11.40;99.20
5556;DHT22;2801;50.972;7.856;2022-09-03T04:48:50;11.40;99.20
5556;DHT22;2801;50.972;7.856;2022-09-03T04:51:22;11.40;99.20
5556;DHT22;2801;50.972;7.856;2022-09-03T04:54:00;11.50;99.30
5556;DHT22;2801;50.972;7.856;2022-09-03T04:56:30;11.50;99.20
5556;DHT22;2801;50.972;7.856;2022-09-03T04:59:01;11.40;99.10
5556;DHT22;2801;50.972;7.856;2022-09-03T05:01:32;11.40;99.20
5556;DHT22;2801;50.972;7.856;2022-09-03T05:04:01;11.40;99.30
5556;DHT22;2801;50.972;7.856;2022-09-03T05:06:29;11.50;99.50
5556;DHT22;2801;50.972;7.856;2022-09-03T05:08:57;11.60;99.70
5556;DHT22;2801;50.972;7.856;2022-09-03T05:11:26;11.80;99.70
5556;DHT22;2801;50.972;7.856;2022-09-03T05:13:55;12.20;99.70
5556;DHT22;2801;50.972;7.856;2022-09-03T05:16:25;12.50;99.60
5556;DHT22;2801;50.972;7.856;2022-09-03T05:18:55;12.90;99.40
5556;DHT22;2801;50.972;7.856;2022-09-03T05:21:25;13.20;99.10
5556;DHT22;2801;50.972;7.856;2022-09-03T05:23:53;13.60;98.80
5556;DHT22;2801;50.972;7.856;2022-09-03T05:26:23;14.00;98.50
5556;DHT22;2801;50.972;7.856;2022-09-03T05:29:00;14.50;98.50
5556;DHT22;2801;50.972;7.856;2022-09-03T05:31:29;14.90;97.70
5556;DHT22;2801;50.972;7.856;2022-09-03T05:34:00;15.30;97.10
5556;DHT22;2801;50.972;7.856;2022-09-03T05:36:31;15.50;96.50
5556;DHT22;2801;50.972;7.856;2022-09-03T05:39:01;15.60;95.70
5556;DHT22;2801;50.972;7.856;2022-09-03T05:41:29;15.60;95.80
5556;DHT22;2801;50.972;7.856;2022-09-03T05:43:58;15.80;95.10
5556;DHT22;2801;50.972;7.856;2022-09-03T05:46:31;16.10;95.30
5556;DHT22;2801;50.972;7.856;2022-09-03T05:49:00;16.60;95.10
5556;DHT22;2801;50.972;7.856;2022-09-03T05:51:28;17.20;94.30
5556;DHT22;2801;50.972;7.856;2022-09-03T05:53:57;17.50;93.70
5556;DHT22;2801;50.972;7.856;2022-09-03T05:56:26;17.90;92.50
5556;DHT22;2801;50.972;7.856;2022-09-03T05:58:59;18.40;91.60
5556;DHT22;2801;50.972;7.856;2022-09-03T06:01:30;18.90;91.80
5556;DHT22;2801;50.972;7.856;2022-09-03T06:04:02;19.40;91.00
5556;DHT22;2801;50.972;7.856;2022-09-03T06:06:36;19.90;89.20
5556;DHT22;2801;50.972;7.856;2022-09-03T06:09:06;20.40;89.00
5556;DHT22;2801;50.972;7.856;2022-09-03T06:11:37;20.90;87.90
5556;DHT22;2801;50.972;7.856;2022-09-03T06:14:07;21.20;84.00
5556;DHT22;2801;50.972;7.856;2022-09-03T06:16:37;21.10;84.00
5556;DHT22;2801;50.972;7.856;2022-09-03T06:19:06;20.60;84.70
5556;DHT22;2801;50.972;7.856;2022-09-03T06:21:41;20.00;85.50
5556;DHT22;2801;50.972;7.856;2022-09-03T06:24:13;19.40;83.60
5556;DHT22;2801;50.972;7.856;2022-09-03T06:26:42;19.00;85.70
5556;DHT22;2801;50.972;7.856;2022-09-03T06:29:09;18.20;85.70
5556;DHT22;2801;50.972;7.856;2022-09-03T06:31:37;18.10;88.20
5556;DHT22;2801;50.972;7.856;2022-09-03T06:34:05;18.30;88.80
5556;DHT22;2801;50.972;7.856;2022-09-03T06:36:32;18.90;87.30
5556;DHT22;2801;50.972;7.856;2022-09-03T06:38:59;19.50;86.10
5556;DHT22;2801;50.972;7.856;2022-09-03T06:41:29;20.30;85.30
5556;DHT22;2801;50.972;7.856;2022-09-03T06:44:06;21.20;80.90
5556;DHT22;2801;50.972;7.856;2022-09-03T06:46:38;21.90;80.00
5556;DHT22;2801;50.972;7.856;2022-09-03T06:49:09;22.40;74.50
5556;DHT22;2801;50.972;7.856;2022-09-03T06:51:37;22.70;77.10
5556;DHT22;2801;50.972;7.856;2022-09-03T06:54:10;23.40;76.80
5556;DHT22;2801;50.972;7.856;2022-09-03T06:56:39;23.40;70.90
5556;DHT22;2801;50.972;7.856;2022-09-03T06:59:09;23.30;71.30
5556;DHT22;2801;50.972;7.856;2022-09-03T07:01:41;23.10;68.60
5556;DHT22;2801;50.972;7.856;2022-09-03T07:04:13;22.90;70.30
5556;DHT22;2801;50.972;7.856;2022-09-03T07:06:44;22.90;71.30
5556;DHT22;2801;50.972;7.856;2022-09-03T07:09:12;23.00;70.60
5556;DHT22;2801;50.972;7.856;2022-09-03T07:11:41;22.50;69.70
5556;DHT22;2801;50.972;7.856;2022-09-03T07:14:15;21.80;70.80
5556;DHT22;2801;50.972;7.856;2022-09-03T07:16:43;21.40;74.00
5556;DHT22;2801;50.972;7.856;2022-09-03T07:19:11;21.40;74.60
5556;DHT22;2801;50.972;7.856;2022-09-03T07:21:40;21.60;74.20
5556;DHT22;2801;50.972;7.856;2022-09-03T07:24:14;21.80;73.60
5556;DHT22;2801;50.972;7.856;2022-09-03T07:26:42;21.70;72.90
5556;DHT22;2801;50.972;7.856;2022-09-03T07:29:11;21.50;73.70
5556;DHT22;2801;50.972;7.856;2022-09-03T07:31:41;21.00;74.00
5556;DHT22;2801;50.972;7.856;2022-09-03T07:34:11;20.50;74.90
5556;DHT22;2801;50.972;7.856;2022-09-03T07:36:46;20.20;75.30
5556;DHT22;2801;50.972;7.856;2022-09-03T07:39:17;19.80;76.40
5556;DHT22;2801;50.972;7.856;2022-09-03T07:41:45;20.00;77.50
5556;DHT22;2801;50.972;7.856;2022-09-03T07:44:14;20.30;76.40
5556;DHT22;2801;50.972;7.856;2022-09-03T07:46:45;20.30;75.00
5556;DHT22;2801;50.972;7.856;2022-09-03T07:49:13;20.50;75.80
5556;DHT22;2801;50.972;7.856;2022-09-03T07:51:40;21.40;75.00
5556;DHT22;2801;50.972;7.856;2022-09-03T07:54:09;21.70;72.00
5556;DHT22;2801;50.972;7.856;2022-09-03T07:56:39;21.60;71.90
5556;DHT22;2801;50.972;7.856;2022-09-03T07:59:07;21.90;73.60
5556;DHT22;2801;50.972;7.856;2022-09-03T08:01:35;22.70;70.10
5556;DHT22;2801;50.972;7.856;2022-09-03T08:04:07;23.40;68.70
5556;DHT22;2801;50.972;7.856;2022-09-03T08:06:36;23.40;65.90
5556;DHT22;2801;50.972;7.856;2022-09-03T08:09:06;22.50;68.60
5556;DHT22;2801;50.972;7.856;2022-09-03T08:11:37;22.40;70.40
5556;DHT22;2801;50.972;7.856;2022-09-03T08:14:10;22.60;68.90
5556;DHT22;2801;50.972;7.856;2022-09-03T08:16:43;23.30;68.80
5556;DHT22;2801;50.972;7.856;2022-09-03T08:19:16;23.80;68.30
5556;DHT22;2801;50.972;7.856;2022-09-03T08:21:44;24.40;65.70
5556;DHT22;2801;50.972;7.856;2022-09-03T08:24:13;24.30;64.90
5556;DHT22;2801;50.972;7.856;2022-09-03T08:26:42;24.40;64.50
5556;DHT22;2801;50.972;7.856;2022-09-03T08:29:17;24.10;64.40
5556;DHT22;2801;50.972;7.856;2022-09-03T08:31:44;23.80;65.50
5556;DHT22;2801;50.972;7.856;2022-09-03T08:34:11;23.60;65.90
5556;DHT22;2801;50.972;7.856;2022-09-03T08:36:39;23.60;66.70
5556;DHT22;2801;50.972;7.856;2022-09-03T08:39:08;23.40;67.30
5556;DHT22;2801;50.972;7.856;2022-09-03T08:44:57;23.20;66.90
5556;DHT22;2801;50.972;7.856;2022-09-03T08:47:44;24.10;65.80
5556;DHT22;2801;50.972;7.856;2022-09-03T08:50:25;25.10;64.70
5556;DHT22;2801;50.972;7.856;2022-09-03T08:55:40;26.00;61.50
5556;DHT22;2801;50.972;7.856;2022-09-03T09:20:49;22.80;66.00
5556;DHT22;2801;50.972;7.856;2022-09-03T09:23:29;22.20;68.50
5556;DHT22;2801;50.972;7.856;2022-09-03T09:26:12;21.60;70.10
5556;DHT22;2801;50.972;7.856;2022-09-03T09:28:44;21.50;71.10
5556;DHT22;2801;50.972;7.856;2022-09-03T09:31:15;21.30;71.40
5556;DHT22;2801;50.972;7.856;2022-09-03T09:33:44;21.20;72.70
5556;DHT22;2801;50.972;7.856;2022-09-03T09:36:15;21.30;73.00
5556;DHT22;2801;50.972;7.856;2022-09-03T09:38:45;21.40;72.80
5556;DHT22;2801;50.972;7.856;2022-09-03T09:41:19;21.70;72.60
5556;DHT22;2801;50.972;7.856;2022-09-03T09:44:03;21.90;71.70
5556;DHT22;2801;50.972;7.856;2022-09-03T09:46:36;21.60;72.20
5556;DHT22;2801;50.972;7.856;2022-09-03T09:49:42;21.30;73.20
5556;DHT22;2801;50.972;7.856;2022-09-03T09:52:18;21.30;74.40
5556;DHT22;2801;50.972;7.856;2022-09-03T09:54:47;21.20;74.50
5556;DHT22;2801;50.972;7.856;2022-09-03T09:57:16;20.90;75.00
5556;DHT22;2801;50.972;7.856;2022-09-03T09:59:48;20.90;76.10
5556;DHT22;2801;50.972;7.856;2022-09-03T10:02:26;20.70;76.90
5556;DHT22;2801;50.972;7.856;2022-09-03T10:04:59;20.90;77.30
5556;DHT22;2801;50.972;7.856;2022-09-03T10:07:38;20.80;77.00
5556;DHT22;2801;50.972;7.856;2022-09-03T10:10:15;20.80;76.90
5556;DHT22;2801;50.972;7.856;2022-09-03T10:13:11;20.90;76.90
5556;DHT22;2801;50.972;7.856;2022-09-03T10:16:48;21.00;77.30
5556;DHT22;2801;50.972;7.856;2022-09-03T10:19:05;20.70;77.10
5556;DHT22;2801;50.972;7.856;2022-09-03T10:22:02;20.90;77.90
5556;DHT22;2801;50.972;7.856;2022-09-03T10:25:02;20.90;78.20
5556;DHT22;2801;50.972;7.856;2022-09-03T10:27:30;21.00;78.10
5556;DHT22;2801;50.972;7.856;2022-09-03T10:29:58;21.10;78.00
5556;DHT22;2801;50.972;7.856;2022-09-03T10:32:47;21.30;78.10
5556;DHT22;2801;50.972;7.856;2022-09-03T10:35:33;21.70;78.40
5556;DHT22;2801;50.972;7.856;2022-09-03T10:38:16;21.70;77.30
5556;DHT22;2801;50.972;7.856;2022-09-03T10:44:01;21.70;78.10
5556;DHT22;2801;50.972;7.856;2022-09-03T10:46:57;21.80;78.20
5556;DHT22;2801;50.972;7.856;2022-09-03T10:49:49;22.00;78.40
5556;DHT22;2801;50.972;7.856;2022-09-03T10:52:35;21.90;77.50
5556;DHT22;2801;50.972;7.856;2022-09-03T10:58:28;21.80;77.80
5556;DHT22;2801;50.972;7.856;2022-09-03T11:01:17;21.80;78.20
5556;DHT22;2801;50.972;7.856;2022-09-03T11:07:08;22.20;77.60
5556;DHT22;2801;50.972;7.856;2022-09-03T11:09:52;22.50;77.80
5556;DHT22;2801;50.972;7.856;2022-09-03T11:12:26;22.60;77.60
5556;DHT22;2801;50.972;7.856;2022-09-03T11:17:44;22.90;76.60
5556;DHT22;2801;50.972;7.856;2022-09-03T11:20:22;23.10;76.50
5556;DHT22;2801;50.972;7.856;2022-09-03T11:22:59;23.30;75.40
5556;DHT22;2801;50.972;7.856;2022-09-03T11:25:36;22.90;76.10
5556;DHT22;2801;50.972;7.856;2022-09-03T11:28:24;22.70;76.20
5556;DHT22;2801;50.972;7.856;2022-09-03T11:31:08;22.40;77.10
5556;DHT22;2801;50.972;7.856;2022-09-03T11:34:11;22.50;77.40
5556;DHT22;2801;50.972;7.856;2022-09-03T11:36:49;22.80;77.50
5556;DHT22;2801;50.972;7.856;2022-09-03T11:39:25;23.00;76.30
5556;DHT22;2801;50.972;7.856;2022-09-03T11:42:34;23.20;76.40
5556;DHT22;2801;50.972;7.856;2022-09-03T11:47:55;23.00;75.80
5556;DHT22;2801;50.972;7.856;2022-09-03T11:50:33;22.80;76.00
5556;DHT22;2801;50.972;7.856;2022-09-03T11:53:07;22.60;76.90
5556;DHT22;2801;50.972;7.856;2022-09-03T11:58:35;22.40;78.10
5556;DHT22;2801;50.972;7.856;2022-09-03T12:01:09;22.20;78.60
5556;DHT22;2801;50.972;7.856;2022-09-03T12:04:00;22.20;79.00
5556;DHT22;2801;50.972;7.856;2022-09-03T12:06:56;22.00;79.40
5556;DHT22;2801;50.972;7.856;2022-09-03T12:12:49;21.70;80.70
5556;DHT22;2801;50.972;7.856;2022-09-03T12:18:41;21.40;82.70
5556;DHT22;2801;50.972;7.856;2022-09-03T12:21:10;21.50;83.50
5556;DHT22;2801;50.972;7.856;2022-09-03T12:23:46;21.60;83.20
5556;DHT22;2801;50.972;7.856;2022-09-03T12:26:17;22.00;83.60
5556;DHT22;2801;50.972;7.856;2022-09-03T12:28:53;22.20;82.80
5556;DHT22;2801;50.972;7.856;2022-09-03T12:31:25;22.20;82.20
5556;DHT22;2801;50.972;7.856;2022-09-03T12:34:08;22.20;83.40
5556;DHT22;2801;50.972;7.856;2022-09-03T12:36:47;22.50;83.00
5556;DHT22;2801;50.972;7.856;2022-09-03T12:39:21;22.90;81.10
5556;DHT22;2801;50.972;7.856;2022-09-03T12:42:14;23.20;81.70
5556;DHT22;2801;50.972;7.856;2022-09-03T12:44:47;23.60;81.90
5556;DHT22;2801;50.972;7.856;2022-09-03T12:47:17;24.00;81.80
5556;DHT22;2801;50.972;7.856;2022-09-03T12:50:09;24.20;78.60
5556;DHT22;2801;50.972;7.856;2022-09-03T12:55:42;23.70;79.90
5556;DHT22;2801;50.972;7.856;2022-09-03T12:58:21;24.00;81.00
5556;DHT22;2801;50.972;7.856;2022-09-03T13:00:58;24.20;78.00
5556;DHT22;2801;50.972;7.856;2022-09-03T13:03:54;24.30;80.10
5556;DHT22;2801;50.972;7.856;2022-09-03T13:06:28;24.60;79.50
5556;DHT22;2801;50.972;7.856;2022-09-03T13:09:02;24.90;79.00
5556;DHT22;2801;50.972;7.856;2022-09-03T13:11:33;25.00;79.20
5556;DHT22;2801;50.972;7.856;2022-09-03T13:14:06;24.90;78.40
5556;DHT22;2801;50.972;7.856;2022-09-03T13:30:40;24.40;80.40
5556;DHT22;2801;50.972;7.856;2022-09-03T13:33:24;24.10;80.90
5556;DHT22;2801;50.972;7.856;2022-09-03T13:36:09;23.80;80.80
5556;DHT22;2801;50.972;7.856;2022-09-03T13:38:59;23.60;82.40
5556;DHT22;2801;50.972;7.856;2022-09-03T13:41:36;23.70;82.90
5556;DHT22;2801;50.972;7.856;2022-09-03T13:44:15;23.70;81.10
5556;DHT22;2801;50.972;7.856;2022-09-03T13:46:53;24.10;80.70
5556;DHT22;2801;50.972;7.856;2022-09-03T13:49:46;24.20;80.10
5556;DHT22;2801;50.972;7.856;2022-09-03T13:53:06;24.10;79.60
5556;DHT22;2801;50.972;7.856;2022-09-03T13:55:58;24.00;79.80
5556;DHT22;2801;50.972;7.856;2022-09-03T13:58:44;23.90;79.20
5556;DHT22;2801;50.972;7.856;2022-09-03T14:04:32;23.60;79.30
5556;DHT22;2801;50.972;7.856;2022-09-03T14:07:15;23.20;79.70
5556;DHT22;2801;50.972;7.856;2022-09-03T14:12:45;22.70;81.10
5556;DHT22;2801;50.972;7.856;2022-09-03T14:15:23;22.80;81.40
5556;DHT22;2801;50.972;7.856;2022-09-03T14:18:08;22.90;81.20
5556;DHT22;2801;50.972;7.856;2022-09-03T14:20:48;23.00;81.20
5556;DHT22;2801;50.972;7.856;2022-09-03T14:23:37;23.00;80.90
5556;DHT22;2801;50.972;7.856;2022-09-03T14:26:47;23.00;81.00
5556;DHT22;2801;50.972;7.856;2022-09-03T14:32:13;23.00;81.90
5556;DHT22;2801;50.972;7.856;2022-09-03T14:35:10;23.20;82.20
5556;DHT22;2801;50.972;7.856;2022-09-03T14:40:46;23.50;82.30
5556;DHT22;2801;50.972;7.856;2022-09-03T14:46:27;23.60;81.60
5556;DHT22;2801;50.972;7.856;2022-09-03T14:49:07;23.60;82.50
5556;DHT22;2801;50.972;7.856;2022-09-03T15:03:57;22.90;83.60
5556;DHT22;2801;50.972;7.856;2022-09-03T15:06:39;22.80;83.60
5556;DHT22;2801;50.972;7.856;2022-09-03T15:09:51;22.80;83.60
5556;DHT22;2801;50.972;7.856;2022-09-03T15:13:09;22.80;83.70
5556;DHT22;2801;50.972;7.856;2022-09-03T15:24:20;23.10;83.40
5556;DHT22;2801;50.972;7.856;2022-09-03T15:27:44;23.00;83.90
5556;DHT22;2801;50.972;7.856;2022-09-03T15:30:18;23.10;84.30
5556;DHT22;2801;50.972;7.856;2022-09-03T15:38:40;22.80;85.00
5556;DHT22;2801;50.972;7.856;2022-09-03T15:41:28;22.70;85.90
5556;DHT22;2801;50.972;7.856;2022-09-03T15:44:24;22.60;86.30
5556;DHT22;2801;50.972;7.856;2022-09-03T15:56:18;22.50;87.90
5556;DHT22;2801;50.972;7.856;2022-09-03T16:19:45;22.20;89.70
5556;DHT22;2801;50.972;7.856;2022-09-03T16:22:28;22.10;90.30
5556;DHT22;2801;50.972;7.856;2022-09-03T16:25:16;22.00;90.10
5556;DHT22;2801;50.972;7.856;2022-09-03T16:28:05;22.00;90.30
5556;DHT22;2801;50.972;7.856;2022-09-03T16:31:07;22.00;90.20
5556;DHT22;2801;50.972;7.856;2022-09-03T16:43:02;21.90;90.30
5556;DHT22;2801;50.972;7.856;2022-09-03T16:46:28;21.70;90.40
5556;DHT22;2801;50.972;7.856;2022-09-03T16:52:15;21.30;90.90
5556;DHT22;2801;50.972;7.856;2022-09-03T16:58:37;21.10;91.30
5556;DHT22;2801;50.972;7.856;2022-09-03T17:09:18;20.90;91.40
5556;DHT22;2801;50.972;7.856;2022-09-03T17:46:44;20.20;93.60
5556;DHT22;2801;50.972;7.856;2022-09-03T17:49:24;20.20;93.50
5556;DHT22;2801;50.972;7.856;2022-09-03T17:52:05;20.20;93.50
5556;DHT22;2801;50.972;7.856;2022-09-03T17:54:42;20.20;93.50
5556;DHT22;2801;50.972;7.856;2022-09-03T17:57:24;20.20;93.70
5556;DHT22;2801;50.972;7.856;2022-09-03T18:00:05;20.20;93.70
5556;DHT22;2801;50.972;7.856;2022-09-03T18:02:38;20.30;93.70
5556;DHT22;2801;50.972;7.856;2022-09-03T18:13:49;20.20;94.10
5556;DHT22;2801;50.972;7.856;2022-09-03T18:16:34;20.20;94.20
5556;DHT22;2801;50.972;7.856;2022-09-03T18:19:18;20.20;94.30
5556;DHT22;2801;50.972;7.856;2022-09-03T18:22:03;20.20;94.40
5556;DHT22;2801;50.972;7.856;2022-09-03T18:24:55;20.10;94.30
5556;DHT22;2801;50.972;7.856;2022-09-03T18:27:46;20.00;94.20
5556;DHT22;2801;50.972;7.856;2022-09-03T18:30:37;20.00;94.50
5556;DHT22;2801;50.972;7.856;2022-09-03T18:33:24;19.80;94.10
5556;DHT22;2801;50.972;7.856;2022-09-03T18:36:11;19.70;94.10
5556;DHT22;2801;50.972;7.856;2022-09-03T18:45:51;19.20;94.10
5556;DHT22;2801;50.972;7.856;2022-09-03T18:49:14;19.10;94.20
5556;DHT22;2801;50.972;7.856;2022-09-03T19:02:13;18.20;94.70
5556;DHT22;2801;50.972;7.856;2022-09-03T19:05:58;18.00;94.80
5556;DHT22;2801;50.972;7.856;2022-09-03T19:09:13;17.80;94.90
5556;DHT22;2801;50.972;7.856;2022-09-03T19:15:28;17.30;95.20
5556;DHT22;2801;50.972;7.856;2022-09-03T19:24:14;16.70;96.00
5556;DHT22;2801;50.972;7.856;2022-09-03T19:30:25;16.60;96.50
5556;DHT22;2801;50.972;7.856;2022-09-03T19:33:52;16.50;96.70
5556;DHT22;2801;50.972;7.856;2022-09-03T19:37:40;16.50;96.90
5556;DHT22;2801;50.972;7.856;2022-09-03T19:44:04;16.10;96.80
5556;DHT22;2801;50.972;7.856;2022-09-03T19:47:17;16.00;97.20
5556;DHT22;2801;50.972;7.856;2022-09-03T19:50:19;15.90;97.60
5556;DHT22;2801;50.972;7.856;2022-09-03T19:53:11;15.80;97.70
5556;DHT22;2801;50.972;7.856;2022-09-03T19:56:05;15.70;98.30
5556;DHT22;2801;50.972;7.856;2022-09-03T19:58:59;15.60;98.20
5556;DHT22;2801;50.972;7.856;2022-09-03T20:01:51;15.50;98.70
5556;DHT22;2801;50.972;7.856;2022-09-03T20:05:00;15.40;98.70
5556;DHT22;2801;50.972;7.856;2022-09-03T20:07:49;15.40;98.90
5556;DHT22;2801;50.972;7.856;2022-09-03T20:10:41;15.20;99.00
5556;DHT22;2801;50.972;7.856;2022-09-03T20:13:12;15.20;99.30
5556;DHT22;2801;50.972;7.856;2022-09-03T20:15:55;15.10;99.40
5556;DHT22;2801;50.972;7.856;2022-09-03T20:19:10;15.00;99.90
5556;DHT22;2801;50.972;7.856;2022-09-03T20:22:08;15.00;99.90
5556;DHT22;2801;50.972;7.856;2022-09-03T20:31:24;14.70;99.90
5556;DHT22;2801;50.972;7.856;2022-09-03T20:34:15;14.60;99.90
5556;DHT22;2801;50.972;7.856;2022-09-03T20:39:45;14.60;99.90
5556;DHT22;2801;50.972;7.856;2022-09-03T20:45:31;14.50;99.90
5556;DHT22;2801;50.972;7.856;2022-09-03T20:48:12;14.40;99.90
5556;DHT22;2801;50.972;7.856;2022-09-03T20:50:53;14.30;99.90
5556;DHT22;2801;50.972;7.856;2022-09-03T20:53:53;14.30;99.90
5556;DHT22;2801;50.972;7.856;2022-09-03T21:02:27;14.10;99.90
5556;DHT22;2801;50.972;7.856;2022-09-03T21:11:20;13.70;99.90
5556;DHT22;2801;50.972;7.856;2022-09-03T21:32:07;13.40;99.90
5556;DHT22;2801;50.972;7.856;2022-09-03T21:34:45;13.40;99.90
5556;DHT22;2801;50.972;7.856;2022-09-03T21:37:21;13.30;99.90
5556;DHT22;2801;50.972;7.856;2022-09-03T21:39:55;13.30;99.90
5556;DHT22;2801;50.972;7.856;2022-09-03T21:42:33;13.30;99.90
5556;DHT22;2801;50.972;7.856;2022-09-03T21:48:13;13.20;99.90
5556;DHT22;2801;50.972;7.856;2022-09-03T21:53:31;13.00;99.90
5556;DHT22;2801;50.972;7.856;2022-09-03T21:59:00;12.90;99.90
5556;DHT22;2801;50.972;7.856;2022-09-03T22:04:19;12.90;99.90
5556;DHT22;2801;50.972;7.856;2022-09-03T22:06:56;12.90;99.90
5556;DHT22;2801;50.972;7.856;2022-09-03T22:12:15;12.90;99.90
5556;DHT22;2801;50.972;7.856;2022-09-03T22:14:52;12.90;99.90
5556;DHT22;2801;50.972;7.856;2022-09-03T22:17:50;12.80;99.90
5556;DHT22;2801;50.972;7.856;2022-09-03T22:20:26;12.80;99.90
5556;DHT22;2801;50.972;7.856;2022-09-03T22:23:29;12.80;99.90
5556;DHT22;2801;50.972;7.856;2022-09-03T22:26:00;12.80;99.90
5556;DHT22;2801;50.972;7.856;2022-09-03T22:28:41;12.70;99.90
5556;DHT22;2801;50.972;7.856;2022-09-03T22:36:56;12.70;99.90
5556;DHT22;2801;50.972;7.856;2022-09-03T22:39:39;12.70;99.90
5556;DHT22;2801;50.972;7.856;2022-09-03T22:42:18;12.80;99.90
5556;DHT22;2801;50.972;7.856;2022-09-03T22:45:07;12.80;99.90
5556;DHT22;2801;50.972;7.856;2022-09-03T22:53:29;12.60;99.90
5556;DHT22;2801;50.972;7.856;2022-09-03T22:56:10;12.60;99.90
5556;DHT22;2801;50.972;7.856;2022-09-03T22:59:01;12.50;99.90
5556;DHT22;2801;50.972;7.856;2022-09-03T23:01:48;12.50;99.90
5556;DHT22;2801;50.972;7.856;2022-09-03T23:10:35;12.40;99.90
5556;DHT22;2801;50.972;7.856;2022-09-03T23:13:18;12.40;99.90
5556;DHT22;2801;50.972;7.856;2022-09-03T23:20:18;12.40;99.90
5556;DHT22;2801;50.972;7.856;2022-09-03T23:22:36;12.40;99.90
5556;DHT22;2801;50.972;7.856;2022-09-03T23:25:14;12.40;99.90
5556;DHT22;2801;50.972;7.856;2022-09-03T23:31:14;12.30;99.90
5556;DHT22;2801;50.972;7.856;2022-09-03T23:33:53;12.20;99.90
5556;DHT22;2801;50.972;7.856;2022-09-03T23:36:51;12.20;99.90
5556;DHT22;2801;50.972;7.856;2022-09-03T23:49:35;11.90;99.90